createdAt,value
2022-08-03T00:02:35.691Z,99828.19
2022-08-03T00:06:38.816Z,99832.84
2022-08-03T00:10:41.388Z,99828.50
2022-08-03T00:14:45.337Z,99832.06
2022-08-03T00:18:47.862Z,99833.84
2022-08-03T00:22:50.618Z,99829.63
2022-08-03T00:26:53.316Z,99826.28
2022-08-03T00:30:57.306Z,99832.91
2022-08-03T00:34:59.850Z,99829.00
2022-08-03T00:39:02.412Z,99820.84
2022-08-03T00:43:07.560Z,99826.56
2022-08-03T00:47:11.987Z,99823.47
2022-08-03T00:51:14.641Z,99819.34
2022-08-03T00:55:17.700Z,99818.72
2022-08-03T00:59:20.279Z,99825.59
2022-08-03T01:03:24.175Z,99817.22
2022-08-03T01:07:38.029Z,99818.63
2022-08-03T01:12:00.501Z,99815.34
2022-08-03T01:16:10.643Z,99820.31
2022-08-03T01:20:15.997Z,99818.53
2022-08-03T01:24:35.511Z,99820.75
2022-08-03T01:28:57.436Z,99820.19
2022-08-03T01:33:05.696Z,99814.97
2022-08-03T01:37:11.808Z,99814.03
2022-08-03T01:41:19.602Z,99821.22
2022-08-03T01:45:23.502Z,99812.97
2022-08-03T01:49:29.592Z,99812.56
2022-08-03T01:53:34.612Z,99813.94
2022-08-03T01:58:05.439Z,99806.38
2022-08-03T02:02:15.312Z,99803.66
2022-08-03T02:07:01.351Z,99810.34
2022-08-03T02:10:53.587Z,99807.06
2022-08-03T02:14:57.365Z,99814.16
2022-08-03T02:19:06.308Z,99817.38
2022-08-03T02:23:10.789Z,99813.91
2022-08-03T02:27:19.577Z,99808.44
2022-08-03T02:31:26.045Z,99811.09
2022-08-03T02:35:31.379Z,99799.50
2022-08-03T02:39:37.675Z,99807.66
2022-08-03T02:44:06.874Z,99809.06
2022-08-03T02:48:06.728Z,99809.63
2022-08-03T02:52:13.216Z,99803.31
2022-08-03T02:56:20.632Z,99794.97
2022-08-03T03:00:27.885Z,99795.84
2022-08-03T03:04:32.983Z,99789.03
2022-08-03T03:08:36.303Z,99791.63
2022-08-03T03:12:44.197Z,99794.22
2022-08-03T03:16:50.674Z,99797.13
2022-08-03T03:20:55.340Z,99797.31
2022-08-03T03:24:57.793Z,99790.41
2022-08-03T03:29:02.783Z,99785.22
2022-08-03T03:33:05.580Z,99792.72
2022-08-03T03:37:08.127Z,99791.72
2022-08-03T03:41:11.324Z,99803.38
2022-08-03T03:45:15.452Z,99801.31
2022-08-03T03:49:18.049Z,99800.50
2022-08-03T03:53:21.057Z,99795.38
2022-08-03T03:57:23.833Z,99805.94
2022-08-03T04:01:28.087Z,99804.88
2022-08-03T04:05:48.531Z,99803.34
2022-08-03T04:10:14.327Z,99802.53
2022-08-03T04:14:20.111Z,99812.13
2022-08-03T04:18:25.559Z,99801.75
2022-08-03T04:22:32.576Z,99803.69
2022-08-03T04:26:40.421Z,99807.38
2022-08-03T04:30:48.911Z,99809.31
2022-08-03T04:34:53.493Z,99820.84
2022-08-03T04:39:01.815Z,99829.66
2022-08-03T04:43:06.429Z,99826.66
2022-08-03T04:47:09.393Z,99825.84
2022-08-03T04:51:14.136Z,99821.00
2022-08-03T04:55:26.868Z,99823.81
2022-08-03T04:59:29.508Z,99836.84
2022-08-03T05:03:32.631Z,99827.25
2022-08-03T05:07:36.815Z,99834.44
2022-08-03T05:11:39.380Z,99835.00
2022-08-03T05:15:43.271Z,99828.97
2022-08-03T05:19:45.990Z,99833.13
2022-08-03T05:23:49.899Z,99832.84
2022-08-03T05:27:52.420Z,99826.00
2022-08-03T05:31:54.977Z,99827.88
2022-08-03T05:36:03.133Z,99828.78
2022-08-03T05:40:08.980Z,99835.34
2022-08-03T05:44:11.585Z,99840.47
2022-08-03T05:48:14.093Z,99818.75
2022-08-03T05:52:16.762Z,99824.28
2022-08-03T05:56:25.207Z,99818.66
2022-08-03T06:00:27.787Z,99818.41
2022-08-03T06:04:30.352Z,99822.22
2022-08-03T06:08:32.966Z,99816.41
2022-08-03T06:12:36.922Z,99824.28
2022-08-03T06:16:39.476Z,99818.94
2022-08-03T06:20:42.018Z,99819.84
2022-08-03T06:24:53.544Z,99821.56
2022-08-03T06:28:58.486Z,99823.97
2022-08-03T06:33:01.952Z,99827.06
2022-08-03T06:37:05.015Z,99829.09
2022-08-03T06:41:07.570Z,99823.66
2022-08-03T06:45:12.076Z,99826.13
2022-08-03T06:49:14.650Z,99828.00
2022-08-03T06:53:19.668Z,99829.91
2022-08-03T06:57:23.968Z,99826.56
2022-08-03T07:01:27.900Z,99832.31
2022-08-03T07:05:30.716Z,99840.25
2022-08-03T07:09:33.286Z,99832.44
2022-08-03T07:13:35.818Z,99828.78
2022-08-03T07:17:39.728Z,99832.91
2022-08-03T07:21:42.287Z,99829.38
2022-08-03T07:25:44.823Z,99831.69
2022-08-03T07:29:47.375Z,99832.34
2022-08-03T07:33:51.282Z,99835.09
2022-08-03T07:37:54.484Z,99834.25
2022-08-03T07:41:57.350Z,99836.66
2022-08-03T07:45:59.877Z,99836.31
2022-08-03T07:50:05.315Z,99839.47
2022-08-03T07:54:10.075Z,99839.38
2022-08-03T07:58:16.496Z,99842.13
2022-08-03T08:02:21.952Z,99836.66
2022-08-03T08:06:25.844Z,99831.75
2022-08-03T08:10:29.475Z,99832.81
2022-08-03T08:14:32.072Z,99820.63
2022-08-03T08:18:34.656Z,99828.94
2022-08-03T08:22:38.500Z,99819.22
2022-08-03T08:26:43.051Z,99823.34
2022-08-03T08:30:45.946Z,99819.44
2022-08-03T08:34:48.451Z,99820.19
2022-08-03T08:38:52.367Z,99815.31
2022-08-03T08:42:59.172Z,99815.25
2022-08-03T08:47:03.968Z,99811.13
2022-08-03T08:51:07.012Z,99809.00
2022-08-03T08:55:14.372Z,99808.31
2022-08-03T08:59:18.224Z,99806.25
2022-08-03T09:03:29.674Z,99804.19
2022-08-03T09:07:33.517Z,99805.34
2022-08-03T09:11:51.554Z,99795.13
2022-08-03T09:16:15.801Z,99796.63
2022-08-03T09:20:19.432Z,99791.78
2022-08-03T09:24:40.826Z,99794.22
2022-08-03T09:28:53.936Z,99796.84
2022-08-03T09:33:08.349Z,99789.81
2022-08-03T09:37:16.113Z,99779.50
2022-08-03T09:41:19.708Z,99783.34
2022-08-03T09:45:29.934Z,99789.44
2022-08-03T09:49:32.929Z,99791.59
2022-08-03T09:53:51.468Z,99790.59
2022-08-03T09:58:06.939Z,99791.53
2022-08-03T10:02:23.555Z,99788.41
2022-08-03T10:06:28.947Z,99777.06
2022-08-03T10:10:43.127Z,99781.63
2022-08-03T10:14:46.667Z,99769.78
2022-08-03T10:18:50.565Z,99762.75
2022-08-03T10:22:54.353Z,99763.38
2022-08-03T10:27:03.249Z,99763.59
2022-08-03T10:31:07.685Z,99755.53
2022-08-03T10:35:19.936Z,99752.84
2022-08-03T10:39:28.461Z,99745.34
2022-08-03T10:43:39.708Z,99742.63
2022-08-03T10:47:42.664Z,99745.16
2022-08-03T10:51:48.265Z,99738.16
2022-08-03T10:56:14.016Z,99728.06
2022-08-03T11:00:22.446Z,99730.16
2022-08-03T11:04:25.440Z,99731.84
2022-08-03T11:08:31.631Z,99730.06
2022-08-03T11:12:34.806Z,99719.84
2022-08-03T11:16:39.030Z,99713.25
2022-08-03T11:20:46.389Z,99721.78
2022-08-03T11:25:00.117Z,99711.19
2022-08-03T11:29:28.364Z,99719.69
2022-08-03T11:33:31.614Z,99725.94
2022-08-03T11:37:34.192Z,99715.97
2022-08-03T11:41:42.762Z,99697.69
2022-08-03T11:45:58.397Z,99706.19
2022-08-03T11:50:02.068Z,99711.53
2022-08-03T11:54:07.062Z,99703.38
2022-08-03T11:59:16.384Z,99703.97
2022-08-03T12:02:39.393Z,99710.59
2022-08-03T12:06:55.344Z,99708.28
2022-08-03T12:11:00.393Z,99700.75
2022-08-03T12:15:05.742Z,99702.22
2022-08-03T12:19:08.386Z,99694.97
2022-08-03T12:23:12.267Z,99687.69
2022-08-03T12:27:24.093Z,99684.88
2022-08-03T12:31:28.031Z,99684.09
2022-08-03T12:35:30.720Z,99685.09
2022-08-03T12:39:33.355Z,99691.25
2022-08-03T12:43:36.638Z,99680.84
2022-08-03T12:47:56.082Z,99675.22
2022-08-03T12:52:04.061Z,99685.00
2022-08-03T12:56:09.525Z,99676.59
2022-08-03T13:00:21.704Z,99683.53
2022-08-03T13:04:35.499Z,99684.59
2022-08-03T13:08:38.484Z,99667.91
2022-08-03T13:12:48.589Z,99659.09
2022-08-03T13:16:51.174Z,99667.53
2022-08-03T13:20:55.326Z,99669.53
2022-08-03T13:24:58.373Z,99666.88
2022-08-03T13:29:00.930Z,99670.53
2022-08-03T13:33:03.519Z,99671.94
2022-08-03T13:37:09.784Z,99668.59
2022-08-03T13:41:15.477Z,99667.28
2022-08-03T13:45:18.804Z,99663.75
2022-08-03T13:49:21.414Z,99654.25
2022-08-03T13:53:25.417Z,99645.72
2022-08-03T13:58:03.395Z,99659.94
2022-08-03T14:01:55.259Z,99653.97
2022-08-03T14:05:58.331Z,99649.47
2022-08-03T14:10:02.553Z,99651.22
2022-08-03T14:14:05.205Z,99653.84
2022-08-03T14:18:15.406Z,99645.31
2022-08-03T14:22:18.581Z,99648.69
2022-08-03T14:26:22.477Z,99635.91
2022-08-03T14:30:25.061Z,99633.66
2022-08-03T14:34:27.681Z,99631.00
2022-08-03T14:38:30.356Z,99630.28
2022-08-03T14:42:34.253Z,99624.78
2022-08-03T14:46:36.813Z,99619.50
2022-08-03T14:50:43.233Z,99611.66
2022-08-03T14:54:49.527Z,99615.47
2022-08-03T14:58:53.506Z,99616.84
2022-08-03T15:02:56.127Z,99610.41
2022-08-03T15:06:58.804Z,99607.47
2022-08-03T15:11:01.349Z,99609.56
2022-08-03T15:15:09.765Z,99600.88
2022-08-03T15:20:03.681Z,99590.75
2022-08-03T15:23:34.953Z,99595.91
2022-08-03T15:27:37.505Z,99596.59
2022-08-03T15:32:03.962Z,99595.41
2022-08-03T15:36:08.830Z,99589.78
2022-08-03T15:40:12.401Z,99582.63
2022-08-03T15:44:14.957Z,99584.56
2022-08-03T15:48:20.090Z,99589.03
2022-08-03T15:52:28.984Z,99580.03
2022-08-03T15:56:31.827Z,99582.78
2022-08-03T16:00:34.365Z,99573.41
2022-08-03T16:04:38.257Z,99572.19
2022-08-03T16:08:40.989Z,99566.28
2022-08-03T16:12:43.935Z,99571.28
2022-08-03T16:16:46.673Z,99577.41
2022-08-03T16:20:50.741Z,99571.53
2022-08-03T16:24:53.419Z,99569.97
2022-08-03T16:28:56.414Z,99567.53
2022-08-03T16:32:59.048Z,99567.78
2022-08-03T16:37:22.126Z,99565.03
2022-08-03T16:41:25.772Z,99567.84
2022-08-03T16:45:48.814Z,99562.53
2022-08-03T16:49:53.990Z,99560.78
2022-08-03T16:54:07.384Z,99558.25
2022-08-03T16:58:12.450Z,99558.97
2022-08-03T17:02:22.248Z,99562.50
2022-08-03T17:06:34.048Z,99566.72
2022-08-03T17:10:41.297Z,99563.38
2022-08-03T17:14:47.208Z,99565.00
2022-08-03T17:18:54.085Z,99566.19
2022-08-03T17:23:04.107Z,99556.72
2022-08-03T17:28:48.436Z,99570.34
2022-08-03T17:31:48.809Z,99565.22
2022-08-03T17:35:55.366Z,99574.94
2022-08-03T17:40:01.857Z,99566.00
2022-08-03T17:44:08.321Z,99571.78
2022-08-03T17:48:20.571Z,99573.75
2022-08-03T17:52:31.723Z,99576.59
2022-08-03T17:56:46.373Z,99578.38
2022-08-03T18:01:59.837Z,99573.78
2022-08-03T18:06:10.930Z,99573.50
2022-08-03T18:10:04.356Z,99576.25
2022-08-03T18:14:16.620Z,99581.13
2022-08-03T18:18:32.663Z,99584.97
2022-08-03T18:22:35.492Z,99588.78
2022-08-03T18:26:39.323Z,99579.84
2022-08-03T18:30:53.383Z,99586.56
2022-08-03T18:35:03.717Z,99585.69
2022-08-03T18:39:06.945Z,99576.97
2022-08-03T18:43:10.623Z,99580.28
2022-08-03T18:47:50.581Z,99585.31
2022-08-03T18:52:02.124Z,99587.59
2022-08-03T18:56:08.993Z,99590.84
2022-08-03T19:00:15.913Z,99585.75
2022-08-03T19:04:29.887Z,99583.16
2022-08-03T19:08:40.207Z,99595.59
2022-08-03T19:12:50.246Z,99593.22
2022-08-03T19:17:01.020Z,99596.06
2022-08-03T19:21:15.436Z,99611.78
2022-08-03T19:25:19.819Z,99606.28
2022-08-03T19:29:57.879Z,99606.59
2022-08-03T19:34:03.427Z,99611.06
2022-08-03T19:38:06.037Z,99614.22
2022-08-03T19:42:19.999Z,99602.53
2022-08-03T19:46:30.834Z,99616.25
2022-08-03T19:50:36.244Z,99601.59
2022-08-03T19:54:54.178Z,99615.44
2022-08-03T19:58:59.825Z,99604.09
2022-08-03T20:03:02.592Z,99615.00
2022-08-03T20:07:05.417Z,99612.38
2022-08-03T20:11:09.311Z,99617.44
2022-08-03T20:15:14.423Z,99611.59
2022-08-03T20:19:21.124Z,99610.50
2022-08-03T20:23:23.924Z,99615.25
2022-08-03T20:27:30.772Z,99614.28
2022-08-03T20:31:36.489Z,99617.38
2022-08-03T20:35:42.055Z,99615.28
2022-08-03T20:39:49.699Z,99617.19
2022-08-03T20:43:52.501Z,99618.06
2022-08-03T20:47:58.372Z,99621.16
2022-08-03T20:52:00.920Z,99617.72
2022-08-03T20:56:03.762Z,99611.91
2022-08-03T21:00:12.145Z,99615.41
2022-08-03T21:04:16.109Z,99616.53
2022-08-03T21:08:27.559Z,99618.47
2022-08-03T21:12:39.990Z,99619.34
2022-08-03T21:16:46.181Z,99613.28
2022-08-03T21:20:51.620Z,99623.47
2022-08-03T21:24:57.266Z,99626.22
2022-08-03T21:29:00.688Z,99621.91
2022-08-03T21:33:04.677Z,99617.22
2022-08-03T21:37:08.728Z,99618.94
2022-08-03T21:41:11.416Z,99622.31
2022-08-03T21:45:17.352Z,99627.81
2022-08-03T21:50:05.702Z,99628.13
2022-08-03T21:54:04.277Z,99626.47
2022-08-03T21:58:07.627Z,99630.88
2022-08-03T22:02:15.607Z,99632.50
2022-08-03T22:06:28.070Z,99627.28
2022-08-03T22:10:32.080Z,99620.06
2022-08-03T22:14:34.726Z,99621.22
2022-08-03T22:18:38.034Z,99632.75
2022-08-03T22:22:41.647Z,99629.47
2022-08-03T22:27:18.681Z,99633.56
2022-08-03T22:31:30.892Z,99627.50
2022-08-03T22:35:47.853Z,99624.13
2022-08-03T22:39:51.262Z,99628.16
2022-08-03T22:43:55.534Z,99640.16
2022-08-03T22:47:59.520Z,99631.66
2022-08-03T22:52:03.109Z,99634.63
2022-08-03T22:56:06.270Z,99635.47
2022-08-03T23:00:13.087Z,99637.91
2022-08-03T23:04:17.628Z,99637.03
2022-08-03T23:08:24.694Z,99638.56
2022-08-03T23:12:29.479Z,99644.44
2022-08-03T23:16:36.619Z,99632.44
2022-08-03T23:20:40.163Z,99640.97
2022-08-03T23:24:43.723Z,99640.44
2022-08-03T23:28:47.810Z,99641.56
2022-08-03T23:32:54.644Z,99639.75
2022-08-03T23:36:58.177Z,99634.09
2022-08-03T23:41:03.359Z,99642.84
2022-08-03T23:45:07.170Z,99630.75
2022-08-03T23:49:11.062Z,99629.31
2022-08-03T23:53:22.990Z,99625.97
2022-08-03T23:57:31.105Z,99637.72
